Time;durP1;ratioP1;P1;durP2;ratioP2;P2;SDS_P1;SDS_P2;PMS_P1;PMS_P2;Temp;Humidity;BMP_temperature;BMP_pressure;BME280_temperature;BME280_humidity;BME280_pressure;Samples;Min_cycle;Max_cycle;Signal;HPM_P1;HPM_P2
2021/06/24 00:00:00;;;;;;;10.83;5.37;;;;;;;23.18;46.07;101675.72;5055412;28;20473;-47
2021/06/24 00:02:27;;;;;;;11.80;5.30;;;;;;;23.54;44.90;101683.75;5054250;28;20477;-47
2021/06/24 00:04:55;;;;;;;21.47;7.90;;;;;;;23.62;45.27;101675.00;5055397;28;20470;-48
2021/06/24 00:07:23;;;;;;;9.23;4.63;;;;;;;23.40;45.65;101665.31;5064534;28;20476;-45
2021/06/24 00:09:50;;;;;;;14.30;4.37;;;;;;;23.51;45.31;101670.59;5075346;28;20933;-46
2021/06/24 00:12:21;;;;;;;11.20;4.90;;;;;;;23.22;45.94;101684.50;5074303;28;20776;-44
2021/06/24 00:14:48;;;;;;;9.40;4.60;;;;;;;23.62;45.26;101677.66;5075472;28;20457;-45
2021/06/24 00:17:17;;;;;;;10.97;5.13;;;;;;;23.40;46.04;101674.94;5067069;28;20484;-45
2021/06/24 00:19:45;;;;;;;10.50;4.97;;;;;;;23.42;45.69;101667.91;5075352;28;20478;-44
2021/06/24 00:22:13;;;;;;;11.10;6.10;;;;;;;23.18;46.19;101659.06;5071007;28;20475;-45
2021/06/24 00:24:40;;;;;;;11.30;4.40;;;;;;;22.82;47.26;101647.50;5075438;28;20812;-43
2021/06/24 00:27:08;;;;;;;10.40;4.63;;;;;;;22.68;47.25;101637.81;5073654;28;20485;-45
2021/06/24 00:29:36;;;;;;;8.10;4.30;;;;;;;22.66;47.90;101645.69;5075147;28;20489;-45
2021/06/24 00:32:05;;;;;;;12.07;4.70;;;;;;;22.97;46.66;101663.34;5070923;28;20485;-43
2021/06/24 00:34:34;;;;;;;9.60;5.00;;;;;;;23.16;46.07;101663.44;5074966;28;20577;-45
2021/06/24 00:37:01;;;;;;;21.03;10.20;;;;;;;22.85;47.01;101665.94;5063496;28;20481;-46
2021/06/24 00:39:29;;;;;;;10.80;5.40;;;;;;;22.74;47.01;101653.63;5074363;28;20481;-44
2021/06/24 00:41:57;;;;;;;13.17;5.10;;;;;;;22.96;46.69;101669.50;5063385;28;20478;-46
2021/06/24 00:44:25;;;;;;;15.00;8.97;;;;;;;22.98;47.21;101665.13;5074474;28;20464;-46
2021/06/24 00:46:53;;;;;;;11.43;5.70;;;;;;;23.16;45.98;101676.59;5061963;28;21073;-46
2021/06/24 00:49:20;;;;;;;7.97;4.37;;;;;;;23.28;45.71;101665.25;5074339;28;20831;-46
2021/06/24 00:51:49;;;;;;;18.20;5.13;;;;;;;22.88;46.67;101658.06;5073847;28;20459;-45
2021/06/24 00:54:17;;;;;;;10.23;4.73;;;;;;;22.84;47.07;101656.28;5074844;28;20485;-45
2021/06/24 00:56:45;;;;;;;12.43;4.77;;;;;;;22.76;47.20;101667.66;5073213;28;20451;-46
2021/06/24 00:59:12;;;;;;;10.30;5.37;;;;;;;22.76;47.77;101683.44;5074845;28;20485;-44
2021/06/24 01:01:40;;;;;;;14.30;5.40;;;;;;;23.03;46.37;101697.59;5073806;28;20460;-45
2021/06/24 01:04:08;;;;;;;10.50;5.33;;;;;;;23.00;47.03;101694.97;5075443;28;20483;-44
2021/06/24 01:06:35;;;;;;;10.90;4.33;;;;;;;23.07;46.42;101687.94;5049400;28;20852;-45
2021/06/24 01:09:05;;;;;;;9.90;5.87;;;;;;;22.83;47.11;101680.84;5056856;28;20488;-44
2021/06/24 01:11:32;;;;;;;10.73;4.90;;;;;;;22.73;47.47;101686.06;5057534;28;20456;-44
2021/06/24 01:14:00;;;;;;;12.43;5.30;;;;;;;22.92;47.07;101679.13;5058524;28;20821;-46
2021/06/24 01:16:28;;;;;;;10.37;5.50;;;;;;;23.22;46.25;101686.28;5058363;28;20770;-46
2021/06/24 01:18:56;;;;;;;10.57;4.93;;;;;;;23.33;45.93;101698.63;5057788;28;20749;-45
2021/06/24 01:21:24;;;;;;;9.47;5.50;;;;;;;23.69;45.07;101682.91;5058408;28;20504;-44
2021/06/24 01:23:53;;;;;;;11.80;5.27;;;;;;;23.37;45.80;101680.22;5057106;28;20475;-46
2021/06/24 01:26:21;;;;;;;12.80;4.90;;;;;;;23.35;45.71;101676.69;5057969;28;20487;-44
2021/06/24 01:28:49;;;;;;;13.90;4.97;;;;;;;23.18;46.59;101674.84;5051928;28;20489;-45
2021/06/24 01:31:18;;;;;;;17.27;4.97;;;;;;;22.97;46.99;101678.28;5058327;28;20459;-44
2021/06/24 01:33:46;;;;;;;9.00;4.77;;;;;;;22.96;46.76;101674.75;5041392;28;20810;-44
2021/06/24 01:36:14;;;;;;;19.53;5.57;;;;;;;22.92;46.72;101668.59;5057326;28;20464;-45
2021/06/24 01:38:43;;;;;;;12.60;5.43;;;;;;;23.17;46.63;101666.06;5049172;28;20488;-44
2021/06/24 01:41:13;;;;;;;11.23;5.00;;;;;;;23.25;46.12;101670.47;5058247;28;20466;-45
2021/06/24 01:43:42;;;;;;;14.73;5.90;;;;;;;23.09;46.41;101661.66;5056703;28;20476;-48
2021/06/24 01:46:10;;;;;;;10.60;4.63;;;;;;;22.96;47.06;101658.97;5057710;28;20456;-50
2021/06/24 01:48:39;;;;;;;11.77;5.00;;;;;;;22.56;48.09;101648.25;5056350;28;20486;-49
2021/06/24 01:51:07;;;;;;;13.93;4.80;;;;;;;22.46;48.33;101647.28;5057780;28;20471;-44
2021/06/24 01:53:35;;;;;;;16.97;5.30;;;;;;;22.73;47.68;101645.72;5056550;28;20489;-44
2021/06/24 01:56:03;;;;;;;10.80;4.90;;;;;;;22.87;46.79;101641.38;5057576;28;20457;-44
2021/06/24 01:58:32;;;;;;;10.60;6.17;;;;;;;22.89;47.31;101647.56;5056648;28;20479;-45
2021/06/24 02:01:01;;;;;;;11.60;4.70;;;;;;;22.76;47.60;101651.88;5076680;28;20466;-43
2021/06/24 02:03:29;;;;;;;13.23;5.00;;;;;;;22.91;46.70;101650.16;5076339;28;20535;-47
2021/06/24 02:05:58;;;;;;;11.70;5.03;;;;;;;22.81;47.17;101654.50;5076919;28;20467;-45
2021/06/24 02:08:26;;;;;;;11.10;5.40;;;;;;;22.95;46.92;101651.06;5076259;28;20478;-45
2021/06/24 02:10:55;;;;;;;16.77;5.57;;;;;;;22.71;47.72;101647.47;5077367;28;20478;-44
2021/06/24 02:13:23;;;;;;;14.23;5.40;;;;;;;22.87;46.97;101637.91;5076255;28;20474;-46
2021/06/24 02:15:52;;;;;;;10.50;4.87;;;;;;;22.71;47.39;101631.69;5077084;28;20484;-46
2021/06/24 02:18:20;;;;;;;9.87;5.10;;;;;;;22.58;47.54;101636.88;5075775;28;20837;-45
2021/06/24 02:20:48;;;;;;;13.50;5.17;;;;;;;22.36;48.07;101641.09;5077071;28;20490;-45
2021/06/24 02:23:15;;;;;;;11.17;5.60;;;;;;;22.39;47.72;101630.59;5076038;28;20479;-43
2021/06/24 02:25:43;;;;;;;12.73;5.70;;;;;;;22.31;48.13;101622.66;5077120;28;20455;-45
2021/06/24 02:28:11;;;;;;;9.90;4.73;;;;;;;22.39;48.27;101614.81;5075862;28;20521;-44
2021/06/24 02:30:39;;;;;;;9.73;5.00;;;;;;;22.40;48.30;101616.56;5076847;28;20783;-47
2021/06/24 02:33:09;;;;;;;10.43;4.97;;;;;;;22.40;48.11;101616.56;5066036;28;21036;-47
2021/06/24 02:35:38;;;;;;;10.53;5.53;;;;;;;22.50;47.79;101601.72;5076555;28;20505;-46
2021/06/24 02:38:08;;;;;;;11.17;6.23;;;;;;;22.46;47.58;101603.47;5073195;28;20489;-45
2021/06/24 02:40:35;;;;;;;15.00;6.50;;;;;;;22.29;48.28;101607.78;5076883;28;20490;-46
2021/06/24 02:43:03;;;;;;;13.10;5.73;;;;;;;22.26;48.13;101606.84;5073667;28;20481;-45
2021/06/24 02:45:32;;;;;;;16.20;6.00;;;;;;;22.47;47.95;101607.88;5076299;28;20462;-45
2021/06/24 02:47:59;;;;;;;8.60;5.70;;;;;;;22.17;48.48;101609.44;5074582;28;20967;-46
2021/06/24 02:50:29;;;;;;;14.80;6.67;;;;;;;22.35;48.33;101613.06;5076592;28;20579;-44
2021/06/24 02:52:57;;;;;;;9.50;5.70;;;;;;;22.50;48.09;101607.00;5075200;28;20486;-45
2021/06/24 02:55:30;;;;;;;10.80;5.90;;;;;;;22.32;48.40;101607.78;5076221;28;20478;-44
2021/06/24 02:57:58;;;;;;;10.80;5.70;;;;;;;22.36;47.95;101622.69;5060534;28;20508;-51
2021/06/24 03:00:26;;;;;;;8.47;5.30;;;;;;;22.11;48.63;101617.28;5076218;28;20485;-46
2021/06/24 03:02:54;;;;;;;13.70;6.10;;;;;;;22.37;48.23;101627.09;5074612;28;20527;-46
2021/06/24 03:05:22;;;;;;;14.03;7.53;;;;;;;22.35;48.30;101626.19;5076227;28;20453;-44
2021/06/24 03:07:51;;;;;;;13.23;7.00;;;;;;;22.29;48.55;101626.16;5069254;28;20480;-44
2021/06/24 03:10:20;;;;;;;11.87;6.93;;;;;;;22.46;48.65;101621.00;5075999;28;20926;-45
2021/06/24 03:12:48;;;;;;;26.93;9.83;;;;;;;22.48;48.64;101625.41;5074736;28;20489;-45
2021/06/24 03:15:16;;;;;;;13.67;5.70;;;;;;;22.35;48.75;101615.69;5076010;28;20486;-47
2021/06/24 03:17:43;;;;;;;13.50;6.20;;;;;;;22.26;48.55;101611.25;5064371;28;20486;-44
2021/06/24 03:20:12;;;;;;;10.20;6.00;;;;;;;22.56;47.95;101616.72;5075591;28;20501;-46
2021/06/24 03:22:40;;;;;;;12.33;6.43;;;;;;;22.45;48.30;101614.84;5063956;28;20498;-44
2021/06/24 03:25:12;;;;;;;16.27;8.27;;;;;;;22.48;48.61;101609.63;5075347;28;20560;-45
2021/06/24 03:27:40;;;;;;;14.77;7.10;;;;;;;22.22;48.84;101601.56;5060224;28;20487;-45
2021/06/24 03:30:10;;;;;;;14.17;5.63;;;;;;;22.58;47.71;101601.81;5075087;28;20490;-49
2021/06/24 03:32:38;;;;;;;10.07;6.30;;;;;;;22.26;48.45;101598.97;5062560;28;20481;-47
2021/06/24 03:35:07;;;;;;;12.43;6.40;;;;;;;22.54;47.47;101593.03;5075099;28;20859;-46
2021/06/24 03:37:35;;;;;;;11.20;5.77;;;;;;;22.13;48.62;101591.88;5063203;28;20482;-44
2021/06/24 03:40:05;;;;;;;13.30;6.20;;;;;;;22.09;49.23;101592.72;5075329;28;20480;-44
2021/06/24 03:42:34;;;;;;;13.00;5.87;;;;;;;22.35;47.86;101592.03;5069462;28;20803;-47
2021/06/24 03:45:03;;;;;;;10.10;6.30;;;;;;;22.29;48.54;101595.47;5075528;28;20464;-45
2021/06/24 03:47:30;;;;;;;14.60;8.53;;;;;;;22.29;48.47;101597.25;5063346;28;20790;-44
2021/06/24 03:49:58;;;;;;;12.33;6.40;;;;;;;22.29;48.98;101594.63;5074488;28;20495;-44
2021/06/24 03:52:25;;;;;;;13.10;8.50;;;;;;;22.23;49.34;101596.34;5074294;28;20486;-45
2021/06/24 03:54:53;;;;;;;14.23;6.10;;;;;;;22.29;48.35;101603.38;5075394;28;20805;-44
2021/06/24 03:57:21;;;;;;;13.43;7.30;;;;;;;22.22;49.00;101610.34;5062857;28;20493;-45
2021/06/24 03:59:50;;;;;;;13.40;5.20;;;;;;;22.43;48.17;101608.72;5074809;28;20785;-46
2021/06/24 04:02:17;;;;;;;13.13;6.30;;;;;;;22.19;48.97;101623.47;5063302;28;20498;-43
2021/06/24 04:04:45;;;;;;;10.53;5.93;;;;;;;22.19;49.01;101622.59;5074594;28;20460;-44
2021/06/24 04:07:13;;;;;;;16.93;6.67;;;;;;;22.28;48.97;101632.25;5065529;28;20810;-44
2021/06/24 04:09:40;;;;;;;13.97;6.70;;;;;;;22.56;48.08;101622.81;5075273;28;20482;-44
2021/06/24 04:12:08;;;;;;;10.73;5.53;;;;;;;22.37;48.46;101620.06;5072616;28;20478;-44
2021/06/24 04:14:36;;;;;;;12.17;6.07;;;;;;;22.50;47.93;101628.03;5075049;28;20468;-45
2021/06/24 04:17:05;;;;;;;12.53;6.57;;;;;;;22.58;47.99;101628.09;5073463;28;20484;-45
2021/06/24 04:19:33;;;;;;;14.57;6.20;;;;;;;22.84;47.12;101622.09;5075080;28;20479;-47
2021/06/24 04:22:00;;;;;;;9.50;5.57;;;;;;;22.89;47.34;101623.00;5058691;28;20482;-44
2021/06/24 04:24:28;;;;;;;10.60;5.83;;;;;;;22.20;48.09;101616.47;5074555;28;20458;-46
2021/06/24 04:26:56;;;;;;;17.47;7.20;;;;;;;22.72;47.76;101620.28;5073317;28;20480;-44
2021/06/24 04:29:24;;;;;;;11.43;6.03;;;;;;;22.77;47.19;101616.81;5074872;28;20475;-45
2021/06/24 04:31:51;;;;;;;19.43;9.50;;;;;;;22.51;47.89;101616.66;5065096;28;20781;-45
2021/06/24 04:34:20;;;;;;;18.40;9.23;;;;;;;22.57;48.49;101613.19;5075142;28;20458;-47
2021/06/24 04:36:48;;;;;;;11.40;6.03;;;;;;;22.50;48.39;101612.25;5070628;28;21143;-45
2021/06/24 04:39:15;;;;;;;12.80;6.60;;;;;;;22.44;47.96;101618.34;5075091;28;20474;-46
2021/06/24 04:41:43;;;;;;;11.37;5.97;;;;;;;22.46;47.74;101613.97;5074724;28;20455;-46
2021/06/24 04:44:11;;;;;;;10.97;5.97;;;;;;;22.48;47.69;101616.63;5078776;28;20935;-48
2021/06/24 04:46:38;;;;;;;14.40;5.60;;;;;;;22.68;47.25;101624.66;5077719;28;20459;-46
2021/06/24 04:49:06;;;;;;;8.13;4.80;;;;;;;22.75;46.91;101613.28;5078642;28;20482;-44
2021/06/24 04:51:35;;;;;;;10.70;5.83;;;;;;;22.97;46.27;101618.63;5078034;28;20457;-45
2021/06/24 04:54:03;;;;;;;14.40;6.43;;;;;;;22.97;47.23;101620.41;5078387;28;20474;-46
2021/06/24 04:56:32;;;;;;;10.77;5.00;;;;;;;22.69;47.01;101613.25;5075080;28;20482;-46
2021/06/24 04:59:00;;;;;;;13.40;6.10;;;;;;;22.45;47.95;101620.13;5078634;28;20481;-46
2021/06/24 05:01:29;;;;;;;13.47;6.70;;;;;;;22.46;47.79;101613.97;5078921;28;20461;-45
2021/06/24 05:03:57;;;;;;;9.80;5.70;;;;;;;22.60;47.02;101605.34;5078456;28;20507;-44
2021/06/24 05:06:24;;;;;;;9.93;5.40;;;;;;;22.06;47.58;101611.09;5078572;28;20463;-45
2021/06/24 05:08:53;;;;;;;13.50;5.87;;;;;;;22.66;47.10;101614.13;5065187;28;20478;-45
2021/06/24 05:11:22;;;;;;;7.67;4.70;;;;;;;22.65;46.31;101611.47;5078464;28;20469;-46
2021/06/24 05:13:50;;;;;;;9.90;5.17;;;;;;;22.63;46.32;101614.13;5071829;28;20496;-45
2021/06/24 05:16:18;;;;;;;10.17;6.00;;;;;;;22.60;46.65;101598.31;5078088;28;20940;-50
2021/06/24 05:18:45;;;;;;;12.33;4.73;;;;;;;22.83;45.29;101607.19;5070660;28;20488;-46
2021/06/24 05:21:13;;;;;;;10.50;4.60;;;;;;;22.08;46.30;101599.75;5078417;28;20596;-47
2021/06/24 05:23:43;;;;;;;11.63;5.40;;;;;;;22.74;45.99;101598.38;5076608;28;20478;-44
2021/06/24 05:26:12;;;;;;;10.03;4.60;;;;;;;23.04;44.81;101594.13;5077892;28;20455;-47
2021/06/24 05:28:40;;;;;;;10.90;4.40;;;;;;;23.13;44.38;101585.34;5069420;28;20482;-47
2021/06/24 05:31:07;;;;;;;12.43;4.17;;;;;;;22.83;45.37;101586.13;5078085;28;20774;-45
2021/06/24 05:33:35;;;;;;;10.93;4.20;;;;;;;22.78;44.27;101575.59;5066016;28;20482;-44
2021/06/24 05:36:04;;;;;;;9.93;5.23;;;;;;;23.01;44.93;101586.19;5077399;28;20489;-46
2021/06/24 05:38:32;;;;;;;12.40;3.70;;;;;;;22.97;43.14;101579.16;5076458;28;20483;-45
2021/06/24 05:41:00;;;;;;;10.33;3.83;;;;;;;23.00;44.04;101587.09;5077805;28;20466;-45
2021/06/24 05:43:29;;;;;;;10.73;3.77;;;;;;;22.61;44.73;101583.44;5076584;28;20475;-48
2021/06/24 05:45:56;;;;;;;7.60;3.77;;;;;;;22.49;44.71;101571.94;5077455;28;20453;-49
2021/06/24 05:48:24;;;;;;;11.20;3.43;;;;;;;22.89;43.13;101573.00;5076674;28;20510;-45
2021/06/24 05:50:52;;;;;;;9.50;4.50;;;;;;;23.08;43.51;101579.22;5077641;28;20474;-45
2021/06/24 05:53:20;;;;;;;7.97;3.83;;;;;;;23.68;41.63;101564.41;5068489;28;20486;-46
2021/06/24 05:55:50;;;;;;;8.57;3.90;;;;;;;23.99;41.90;101565.25;5077487;28;20484;-44
2021/06/24 05:58:20;;;;;;;6.80;3.50;;;;;;;23.48;42.16;101559.97;5057052;28;20546;-46
2021/06/24 06:00:50;;;;;;;10.10;4.23;;;;;;;23.98;42.52;101557.31;5077511;28;20473;-44
2021/06/24 06:03:23;;;;;;;7.33;3.20;;;;;;;23.92;41.78;101559.97;5076474;28;20841;-46
2021/06/24 06:06:00;;;;;;;6.67;3.60;;;;;;;24.02;41.08;101559.09;5077564;28;20483;-46
2021/06/24 06:08:30;;;;;;;12.17;4.40;;;;;;;24.17;41.68;101571.41;5065843;28;20538;-47
2021/06/24 06:10:58;;;;;;;10.23;2.70;;;;;;;23.79;42.25;101567.88;5077347;28;20932;-48
2021/06/24 06:13:26;;;;;;;8.00;3.00;;;;;;;23.71;42.00;101569.66;5076142;28;20481;-46
2021/06/24 06:15:55;;;;;;;13.20;5.20;;;;;;;23.98;42.19;101562.59;5076966;28;20458;-44
2021/06/24 06:18:25;;;;;;;14.63;3.83;;;;;;;23.70;42.11;101563.50;5065880;28;20519;-45
2021/06/24 06:20:53;;;;;;;8.37;3.07;;;;;;;23.54;42.84;101567.88;5077161;28;20476;-44
2021/06/24 06:23:23;;;;;;;10.43;4.50;;;;;;;23.76;43.97;101567.91;5075957;28;20495;-47
2021/06/24 06:25:51;;;;;;;13.30;4.30;;;;;;;23.68;43.65;101567.03;5076965;28;20468;-45
2021/06/24 06:28:20;;;;;;;7.80;4.33;;;;;;;23.19;44.48;101572.19;5065252;28;20511;-47
2021/06/24 06:30:49;;;;;;;13.37;4.27;;;;;;;23.47;43.58;101566.13;5077055;28;20492;-46
2021/06/24 06:33:18;;;;;;;14.60;4.90;;;;;;;24.10;42.53;101562.59;5075860;28;20485;-44
2021/06/24 06:35:46;;;;;;;9.03;3.83;;;;;;;23.85;42.66;101565.25;5076785;28;20467;-46
2021/06/24 06:38:14;;;;;;;10.50;3.90;;;;;;;23.94;42.14;101566.13;5075391;28;20485;-43
2021/06/24 06:40:43;;;;;;;11.43;4.30;;;;;;;24.31;41.92;101571.38;5076741;28;20478;-46
2021/06/24 06:43:12;;;;;;;10.70;4.30;;;;;;;24.32;41.68;101566.94;5062624;28;20601;-45
2021/06/24 06:45:39;;;;;;;11.50;3.80;;;;;;;23.81;42.29;101565.25;5076527;28;20458;-46
2021/06/24 06:48:08;;;;;;;8.83;3.53;;;;;;;24.21;41.82;101561.72;5074838;28;20485;-47
2021/06/24 06:50:37;;;;;;;9.60;3.40;;;;;;;23.83;43.24;101563.50;5076802;28;20482;-45
2021/06/24 06:53:05;;;;;;;18.13;4.73;;;;;;;24.68;42.26;101565.06;5070301;28;20482;-47
2021/06/24 06:55:33;;;;;;;6.87;3.03;;;;;;;24.43;41.72;101559.91;5076263;28;20897;-45
2021/06/24 06:58:01;;;;;;;7.70;3.53;;;;;;;24.50;41.42;101556.34;5064577;28;20486;-47
2021/06/24 07:00:30;;;;;;;12.60;4.00;;;;;;;24.41;40.95;101557.25;5056192;28;20490;-46
2021/06/24 07:02:58;;;;;;;5.73;3.43;;;;;;;24.37;41.87;101562.56;5044296;28;20487;-46
2021/06/24 07:05:26;;;;;;;7.13;3.47;;;;;;;24.65;41.61;101570.34;5054976;28;20458;-46
2021/06/24 07:07:56;;;;;;;6.43;3.40;;;;;;;24.62;40.96;101565.94;5050449;28;20508;-49
2021/06/24 07:10:24;;;;;;;5.30;2.93;;;;;;;24.39;41.32;101564.31;5056483;28;20800;-50
2021/06/24 07:12:52;;;;;;;8.50;3.60;;;;;;;24.81;40.52;101569.44;5044977;28;20492;-44
2021/06/24 07:15:19;;;;;;;11.30;3.00;;;;;;;24.47;41.18;101566.91;5056104;28;20458;-46
2021/06/24 07:17:47;;;;;;;6.27;3.00;;;;;;;25.10;40.05;101566.63;5045163;28;20486;-44
2021/06/24 07:20:17;;;;;;;6.10;2.83;;;;;;;25.09;39.77;101571.03;5055720;28;20526;-49
2021/06/24 07:22:44;;;;;;;7.90;3.27;;;;;;;25.13;39.77;101570.16;5054776;28;20480;-44
2021/06/24 07:25:15;;;;;;;8.20;3.87;;;;;;;24.99;40.59;101574.63;5056117;28;20464;-45
2021/06/24 07:27:44;;;;;;;11.23;4.23;;;;;;;24.99;39.06;101569.34;5054635;28;20481;-45
2021/06/24 07:30:12;;;;;;;5.83;2.97;;;;;;;24.91;39.73;101567.63;5055877;28;20488;-47
2021/06/24 07:32:40;;;;;;;7.07;2.50;;;;;;;25.33;39.06;101569.13;5054659;28;20502;-46
2021/06/24 07:35:09;;;;;;;8.47;3.20;;;;;;;25.24;39.22;101559.50;5055651;28;20467;-45
2021/06/24 07:37:45;;;;;;;7.30;3.37;;;;;;;25.31;39.49;101565.59;5070568;27;20599;-48
2021/06/24 07:40:14;;;;;;;10.07;3.30;;;;;;;25.45;40.02;101563.75;5052839;28;20487;-45
2021/06/24 07:42:41;;;;;;;6.43;2.93;;;;;;;25.18;39.35;101563.06;5071927;28;20784;-50
2021/06/24 07:45:10;;;;;;;7.23;3.30;;;;;;;25.30;40.25;101561.22;5092859;28;20465;-46
2021/06/24 07:47:39;;;;;;;7.90;3.37;;;;;;;25.93;39.78;101562.47;5091199;28;20476;-49
2021/06/24 07:50:07;;;;;;;9.60;5.97;;;;;;;24.91;40.63;101567.63;5093002;28;20809;-47
2021/06/24 07:52:35;;;;;;;5.17;3.10;;;;;;;24.35;39.44;101565.19;5091275;28;20926;-49
2021/06/24 07:55:07;;;;;;;10.77;2.97;;;;;;;24.78;38.38;101558.00;5092225;28;20554;-45
2021/06/24 07:57:35;;;;;;;6.37;2.83;;;;;;;25.70;36.87;101553.03;5088956;27;20856;-45
2021/06/24 08:00:05;;;;;;;6.80;3.07;;;;;;;25.08;36.17;101553.47;5092453;28;20927;-45
2021/06/24 08:02:35;;;;;;;12.00;4.43;;;;;;;24.61;38.68;101552.81;5090832;27;20537;-46
2021/06/24 08:05:04;;;;;;;5.57;2.90;;;;;;;24.84;36.88;101550.06;5099185;28;20455;-46
2021/06/24 08:07:32;;;;;;;7.47;3.03;;;;;;;24.95;36.95;101544.72;5091032;27;20927;-48
2021/06/24 08:10:03;;;;;;;6.23;3.10;;;;;;;24.91;38.02;101551.78;5092406;28;20530;-46
2021/06/24 08:12:32;;;;;;;5.60;2.73;;;;;;;25.19;37.76;101543.72;5090325;27;20567;-44
2021/06/24 08:15:03;;;;;;;7.03;2.90;;;;;;;25.38;37.71;101540.91;5099119;28;20541;-45
2021/06/24 08:17:30;;;;;;;5.80;2.80;;;;;;;25.78;37.82;101541.50;5088599;27;20490;-48
2021/06/24 08:19:58;;;;;;;5.23;2.53;;;;;;;25.53;37.97;101529.38;5099888;28;20483;-46
2021/06/24 08:22:27;;;;;;;5.60;2.50;;;;;;;25.74;38.85;101532.72;5086230;27;20484;-45
2021/06/24 08:24:55;;;;;;;5.60;2.50;;;;;;;25.85;36.06;101527.34;5100008;28;20767;-48
2021/06/24 08:27:22;;;;;;;6.03;2.43;;;;;;;25.87;36.68;101533.47;5087691;27;20488;-46
2021/06/24 08:29:52;;;;;;;8.63;3.37;;;;;;;25.45;36.61;101531.19;5100628;28;20780;-47
2021/06/24 08:32:20;;;;;;;10.07;3.00;;;;;;;25.73;36.54;101529.19;5090592;27;20953;-48
2021/06/24 08:34:48;;;;;;;7.10;3.80;;;;;;;25.30;36.76;101532.19;5091981;28;20777;-47
2021/06/24 08:37:15;;;;;;;7.70;3.00;;;;;;;25.79;36.21;101530.88;5090079;27;20484;-46
2021/06/24 08:39:43;;;;;;;9.00;3.70;;;;;;;26.23;35.10;101526.06;5091803;28;20947;-48
2021/06/24 08:42:11;;;;;;;5.93;2.87;;;;;;;25.35;36.96;101518.06;5090640;27;20481;-49
2021/06/24 08:44:40;;;;;;;6.47;3.00;;;;;;;25.68;36.99;101524.84;5091939;28;20547;-46
2021/06/24 08:47:10;;;;;;;14.90;9.23;;;;;;;25.96;36.52;101528.09;5087825;27;20493;-47
2021/06/24 08:49:37;;;;;;;7.27;3.77;;;;;;;25.57;36.61;101525.81;5078223;28;20480;-49
2021/06/24 08:52:06;;;;;;;6.03;3.50;;;;;;;25.49;37.08;101512.66;5076859;28;20468;-51
2021/06/24 08:54:33;;;;;;;6.87;3.10;;;;;;;25.84;36.00;101521.16;5078344;28;20473;-48
2021/06/24 08:57:01;;;;;;;11.07;2.80;;;;;;;25.52;36.98;101518.81;5076465;28;20484;-48
2021/06/24 08:59:29;;;;;;;14.97;6.80;;;;;;;25.79;36.61;101514.19;5078114;28;20501;-48
2021/06/24 09:01:57;;;;;;;7.73;3.10;;;;;;;25.73;36.47;101516.00;5076656;28;20489;-47
2021/06/24 09:04:29;;;;;;;5.80;2.67;;;;;;;25.28;37.59;101523.41;5077576;28;20462;-45
2021/06/24 09:07:06;;;;;;;6.97;3.17;;;;;;;25.28;36.69;101520.75;5074157;28;20986;-48
2021/06/24 09:09:36;;;;;;;7.17;3.33;;;;;;;25.68;35.67;101515.16;5077641;28;20800;-50
2021/06/24 09:12:06;;;;;;;7.83;3.77;;;;;;;25.88;36.14;101514.06;5076493;28;20531;-46
2021/06/24 09:14:44;;;;;;;10.60;3.50;;;;;;;25.54;36.38;101510.03;5077749;28;20470;-44
2021/06/24 09:17:13;;;;;;;7.73;3.07;;;;;;;25.46;37.06;101510.03;5076080;28;20496;-45
2021/06/24 09:19:43;;;;;;;6.87;3.40;;;;;;;25.88;35.82;101514.06;5077498;28;20489;-48
2021/06/24 09:22:15;;;;;;;8.60;3.63;;;;;;;26.11;35.74;101510.31;5076291;28;20481;-44
2021/06/24 09:24:44;;;;;;;6.17;3.37;;;;;;;26.05;36.17;101516.56;5077458;28;20457;-46
2021/06/24 09:27:26;;;;;;;9.67;3.33;;;;;;;25.92;36.94;101520.19;5075827;28;20477;-45
2021/06/24 09:30:03;;;;;;;5.97;3.40;;;;;;;25.43;36.94;101522.41;5077421;28;20481;-47
2021/06/24 09:32:32;;;;;;;10.83;3.37;;;;;;;25.60;37.50;101519.63;5076262;28;20484;-45
2021/06/24 09:35:02;;;;;;;6.83;3.20;;;;;;;25.49;37.08;101517.94;5077360;28;20458;-46
2021/06/24 09:37:30;;;;;;;7.03;4.40;;;;;;;25.17;37.61;101518.22;5075631;28;20488;-45
2021/06/24 09:40:12;;;;;;;8.23;3.50;;;;;;;25.67;36.60;101518.69;5076994;28;20481;-47
2021/06/24 09:42:39;;;;;;;7.10;3.40;;;;;;;25.48;37.15;101521.47;5076021;28;20481;-45
2021/06/24 09:45:09;;;;;;;5.40;2.97;;;;;;;26.08;37.48;101518.25;5076691;28;20456;-44
2021/06/24 09:47:37;;;;;;;6.43;2.87;;;;;;;26.04;38.13;101521.84;5075526;28;20482;-44
2021/06/24 09:50:08;;;;;;;5.77;2.77;;;;;;;26.23;36.55;101520.78;5076851;28;20480;-45
2021/06/24 09:52:38;;;;;;;6.33;3.27;;;;;;;25.87;35.98;101521.16;5075664;28;20497;-45
2021/06/24 09:55:09;;;;;;;10.13;3.60;;;;;;;25.57;36.91;101511.72;5076957;28;20468;-45
2021/06/24 09:57:38;;;;;;;8.07;3.70;;;;;;;26.01;36.97;101510.41;5075224;28;20491;-44
2021/06/24 10:00:20;;;;;;;7.73;4.03;;;;;;;26.00;37.51;101513.94;5075884;28;20478;-45
2021/06/24 10:03:08;;;;;;;12.23;4.63;;;;;;;26.06;37.50;101517.41;5075125;28;20957;-44
2021/06/24 10:05:37;;;;;;;9.50;5.27;;;;;;;25.73;37.62;101510.69;5056669;28;20465;-44
2021/06/24 10:08:05;;;;;;;12.57;6.37;;;;;;;26.09;37.64;101505.03;5055482;28;20479;-46
2021/06/24 10:10:33;;;;;;;8.77;4.70;;;;;;;26.82;35.83;101506.75;5056702;28;20569;-44
2021/06/24 10:13:01;;;;;;;9.77;3.93;;;;;;;25.86;37.82;101513.22;5055240;28;20478;-45
2021/06/24 10:15:29;;;;;;;8.13;5.37;;;;;;;26.08;37.15;101512.97;5056209;28;20782;-45
2021/06/24 10:17:58;;;;;;;10.70;6.10;;;;;;;25.72;37.86;101516.88;5055033;28;20941;-45
2021/06/24 10:20:29;;;;;;;10.80;5.70;;;;;;;25.88;37.95;101514.97;5056408;28;20483;-46
2021/06/24 10:23:00;;;;;;;11.00;6.03;;;;;;;26.15;37.56;101514.69;5055130;28;20487;-44
2021/06/24 10:25:28;;;;;;;8.50;4.80;;;;;;;26.24;37.88;101511.94;5056081;28;20450;-44
2021/06/24 10:27:58;;;;;;;10.07;4.73;;;;;;;25.95;38.24;101510.47;5054953;28;20566;-45
2021/06/24 10:30:27;;;;;;;8.17;5.10;;;;;;;26.41;37.73;101502.94;5056328;28;20791;-46
2021/06/24 10:32:59;;;;;;;8.63;5.83;;;;;;;26.97;35.73;101496.91;5056802;28;20480;-46
2021/06/24 10:35:28;;;;;;;9.30;5.77;;;;;;;26.60;36.13;101495.63;5059506;28;20737;-45
2021/06/24 10:37:59;;;;;;;9.03;4.60;;;;;;;26.20;38.89;101496.97;5054857;28;20483;-45
2021/06/24 10:40:30;;;;;;;7.57;4.23;;;;;;;26.32;37.98;101498.63;5055969;28;20483;-44
2021/06/24 10:42:58;;;;;;;11.43;5.50;;;;;;;26.37;37.38;101493.28;5054777;28;20971;-45
2021/06/24 10:45:27;;;;;;;13.17;7.13;;;;;;;27.02;35.45;101492.38;5055778;28;20534;-45
2021/06/24 10:47:56;;;;;;;9.43;5.87;;;;;;;26.55;36.52;101490.41;5057265;28;20793;-44
2021/06/24 10:50:43;;;;;;;12.93;4.97;;;;;;;26.08;36.87;101492.72;5060190;28;20506;-45
2021/06/24 10:53:48;;;;;;;8.93;5.37;;;;;;;26.00;37.46;101491.94;5059055;28;20486;-45
2021/06/24 10:56:44;;;;;;;11.30;6.80;;;;;;;26.11;36.37;101484.75;5055693;28;20462;-45
2021/06/24 10:59:39;;;;;;;11.97;5.87;;;;;;;26.16;36.97;101480.28;5054981;28;20508;-45
2021/06/24 11:02:11;;;;;;;7.90;4.70;;;;;;;25.69;37.30;101487.84;5056221;28;20919;-44
2021/06/24 11:04:41;;;;;;;8.50;3.80;;;;;;;25.43;37.52;101491.56;5085847;28;20456;-49
2021/06/24 11:07:36;;;;;;;7.73;4.40;;;;;;;25.92;38.02;101489.38;5074273;28;20492;-44
2021/06/24 11:10:29;;;;;;;7.60;3.97;;;;;;;26.51;37.30;101483.38;5075687;28;20544;-45
2021/06/24 11:12:59;;;;;;;6.23;4.20;;;;;;;26.61;36.12;101477.97;5070817;28;20476;-46
2021/06/24 11:15:50;;;;;;;9.87;5.40;;;;;;;26.33;36.37;101480.97;5075206;28;20466;-45
2021/06/24 11:18:48;;;;;;;11.17;7.13;;;;;;;26.94;35.63;101478.41;5077064;28;20551;-43
2021/06/24 11:21:22;;;;;;;7.13;3.70;;;;;;;27.10;35.91;101468.44;5075256;28;20459;-46
2021/06/24 11:23:52;;;;;;;7.40;3.70;;;;;;;27.31;33.99;101472.50;5080687;28;20577;-44
2021/06/24 11:26:31;;;;;;;8.60;4.67;;;;;;;26.75;34.77;101470.72;5075118;28;20562;-44
2021/06/24 11:29:01;;;;;;;9.80;4.43;;;;;;;26.55;35.56;101479.81;5074627;28;20459;-45
2021/06/24 11:31:39;;;;;;;8.00;4.50;;;;;;;26.23;35.31;101467.91;5065659;28;20465;-45